Huvudsida
METAR-TAF:

METAR-TAF

Flygplatser :

Orsk, Ryssland

latitud: 51-04-18N, longitud: 058-35-48E, höjd: 277 m

Aktuellt väderrapport

Denna rapport gjordes för 50 minuter sedan, klockan 15:00 UTC
Vind 12 kt från väst/nordväst
Temperatur 16°C
Fuktighet 34%
Tryck 1020 hPa
Sikt 10 km eller mer
Inga moln under 1 500 m eller inga cumulonimbus

METAR: UWOR 271500Z 29006MPS CAVOK 16/M00 Q1020 R07/CLRD65 NOSIG RMK QFE740/0987

Tid: 20:50 (15:50 UTC)


TAF: saknas

Aktuella väderrapporter och prognoser från 4000 flygplatser (METAR- och TAF-rapporter).

De tillgängliga stationerna syns som gula och röda prickar på kartan.

För musen över prickarna för att se namnen på stationerna.

Klicka sedan för att få väderrapporter och prognoser.

För att ändra kartan: Klicka på de gröna knapparna med ett svart kors på för att zooma in; den gröna knappen med ett streck på för att zooma ut; eller på de gröna pilarna för angränsande kartor.


METAR-TAF: